sensor_id;sensor_type;location;lat;lon;timestamp;temperature;humidity
49777;DHT22;35673;51.482;7.436;2022-09-09T00:01:13;16.30;99.90
49777;DHT22;35673;51.482;7.436;2022-09-09T00:03:50;16.40;99.90
49777;DHT22;35673;51.482;7.436;2022-09-09T00:06:26;16.50;99.90
49777;DHT22;35673;51.482;7.436;2022-09-09T00:09:10;16.50;99.90
49777;DHT22;35673;51.482;7.436;2022-09-09T00:11:43;16.60;99.90
49777;DHT22;35673;51.482;7.436;2022-09-09T00:14:26;16.70;99.90
49777;DHT22;35673;51.482;7.436;2022-09-09T00:17:02;16.70;99.90
49777;DHT22;35673;51.482;7.436;2022-09-09T00:19:55;16.80;99.90
49777;DHT22;35673;51.482;7.436;2022-09-09T00:22:23;16.80;99.90
49777;DHT22;35673;51.482;7.436;2022-09-09T00:24:53;16.80;99.90
49777;DHT22;35673;51.482;7.436;2022-09-09T00:29:59;16.90;99.90
49777;DHT22;35673;51.482;7.436;2022-09-09T00:32:29;16.90;99.90
49777;DHT22;35673;51.482;7.436;2022-09-09T00:37:36;17.00;99.90
49777;DHT22;35673;51.482;7.436;2022-09-09T00:40:08;17.00;99.90
49777;DHT22;35673;51.482;7.436;2022-09-09T00:42:43;17.00;99.90
49777;DHT22;35673;51.482;7.436;2022-09-09T00:48:02;17.00;99.90
49777;DHT22;35673;51.482;7.436;2022-09-09T00:50:53;17.00;99.90
49777;DHT22;35673;51.482;7.436;2022-09-09T00:56:14;16.90;99.90
49777;DHT22;35673;51.482;7.436;2022-09-09T00:58:43;16.90;99.90
49777;DHT22;35673;51.482;7.436;2022-09-09T01:01:13;16.90;99.90
49777;DHT22;35673;51.482;7.436;2022-09-09T01:03:53;16.90;99.90
49777;DHT22;35673;51.482;7.436;2022-09-09T01:09:18;16.80;99.90
49777;DHT22;35673;51.482;7.436;2022-09-09T01:14:39;16.80;99.90
49777;DHT22;35673;51.482;7.436;2022-09-09T01:17:14;16.80;99.90
49777;DHT22;35673;51.482;7.436;2022-09-09T01:22:31;16.80;99.90
49777;DHT22;35673;51.482;7.436;2022-09-09T01:25:28;16.80;99.90
49777;DHT22;35673;51.482;7.436;2022-09-09T01:28:01;16.80;99.90
49777;DHT22;35673;51.482;7.436;2022-09-09T01:30:28;16.70;99.90
49777;DHT22;35673;51.482;7.436;2022-09-09T01:32:56;16.70;99.90
49777;DHT22;35673;51.482;7.436;2022-09-09T01:38:07;16.80;99.90
49777;DHT22;35673;51.482;7.436;2022-09-09T01:40:33;16.80;99.90
49777;DHT22;35673;51.482;7.436;2022-09-09T01:42:58;16.80;99.90
49777;DHT22;35673;51.482;7.436;2022-09-09T01:45:24;16.80;99.90
49777;DHT22;35673;51.482;7.436;2022-09-09T01:47:52;16.80;99.90
49777;DHT22;35673;51.482;7.436;2022-09-09T01:50:19;16.90;99.90
49777;DHT22;35673;51.482;7.436;2022-09-09T01:52:46;16.80;99.90
49777;DHT22;35673;51.482;7.436;2022-09-09T01:55:14;16.90;99.90
49777;DHT22;35673;51.482;7.436;2022-09-09T02:00:13;16.90;99.90
49777;DHT22;35673;51.482;7.436;2022-09-09T02:03:05;16.90;99.90
49777;DHT22;35673;51.482;7.436;2022-09-09T02:11:14;16.90;99.90
49777;DHT22;35673;51.482;7.436;2022-09-09T02:13:40;16.90;99.90
49777;DHT22;35673;51.482;7.436;2022-09-09T02:21:18;16.80;99.90
49777;DHT22;35673;51.482;7.436;2022-09-09T02:23:47;16.70;99.90
49777;DHT22;35673;51.482;7.436;2022-09-09T02:26:15;16.70;99.90
49777;DHT22;35673;51.482;7.436;2022-09-09T02:28:46;16.70;99.90
49777;DHT22;35673;51.482;7.436;2022-09-09T02:31:14;16.70;99.90
49777;DHT22;35673;51.482;7.436;2022-09-09T02:33:46;16.80;99.90
49777;DHT22;35673;51.482;7.436;2022-09-09T02:36:14;16.80;99.90
49777;DHT22;35673;51.482;7.436;2022-09-09T02:38:46;16.80;99.90
49777;DHT22;35673;51.482;7.436;2022-09-09T02:41:20;16.80;99.90
49777;DHT22;35673;51.482;7.436;2022-09-09T02:43:47;16.90;99.90
49777;DHT22;35673;51.482;7.436;2022-09-09T02:49:03;16.90;99.90
49777;DHT22;35673;51.482;7.436;2022-09-09T02:51:35;16.90;99.90
49777;DHT22;35673;51.482;7.436;2022-09-09T02:54:30;16.80;99.90
49777;DHT22;35673;51.482;7.436;2022-09-09T02:59:43;16.80;99.90
49777;DHT22;35673;51.482;7.436;2022-09-09T03:02:10;16.70;99.90
49777;DHT22;35673;51.482;7.436;2022-09-09T03:04:37;16.70;99.90
49777;DHT22;35673;51.482;7.436;2022-09-09T03:07:03;16.60;99.90
49777;DHT22;35673;51.482;7.436;2022-09-09T03:09:29;16.70;99.90
49777;DHT22;35673;51.482;7.436;2022-09-09T03:11:55;16.60;99.90
49777;DHT22;35673;51.482;7.436;2022-09-09T03:14:21;16.60;99.90
49777;DHT22;35673;51.482;7.436;2022-09-09T03:16:50;16.60;99.90
49777;DHT22;35673;51.482;7.436;2022-09-09T03:19:16;16.50;99.90
49777;DHT22;35673;51.482;7.436;2022-09-09T03:21:41;16.50;99.90
49777;DHT22;35673;51.482;7.436;2022-09-09T03:24:07;16.50;99.90
49777;DHT22;35673;51.482;7.436;2022-09-09T03:26:33;16.50;99.90
49777;DHT22;35673;51.482;7.436;2022-09-09T03:28:58;16.50;99.90
49777;DHT22;35673;51.482;7.436;2022-09-09T03:31:26;16.60;99.90
49777;DHT22;35673;51.482;7.436;2022-09-09T03:33:51;16.60;99.90
49777;DHT22;35673;51.482;7.436;2022-09-09T03:36:17;16.60;99.90
49777;DHT22;35673;51.482;7.436;2022-09-09T03:38:42;16.60;99.90
49777;DHT22;35673;51.482;7.436;2022-09-09T03:41:08;16.60;99.90
49777;DHT22;35673;51.482;7.436;2022-09-09T03:43:34;16.60;99.90
49777;DHT22;35673;51.482;7.436;2022-09-09T03:46:00;16.60;99.90
49777;DHT22;35673;51.482;7.436;2022-09-09T03:48:26;16.60;99.90
49777;DHT22;35673;51.482;7.436;2022-09-09T03:50:53;16.60;99.90
49777;DHT22;35673;51.482;7.436;2022-09-09T03:53:23;16.70;99.90
49777;DHT22;35673;51.482;7.436;2022-09-09T03:55:52;16.70;99.90
49777;DHT22;35673;51.482;7.436;2022-09-09T03:58:21;16.70;99.90
49777;DHT22;35673;51.482;7.436;2022-09-09T04:00:57;16.70;99.90
49777;DHT22;35673;51.482;7.436;2022-09-09T04:03:24;16.70;99.90
49777;DHT22;35673;51.482;7.436;2022-09-09T04:05:59;16.70;99.90
49777;DHT22;35673;51.482;7.436;2022-09-09T04:08:25;16.70;99.90
49777;DHT22;35673;51.482;7.436;2022-09-09T04:10:51;16.60;99.90
49777;DHT22;35673;51.482;7.436;2022-09-09T04:13:17;16.60;99.90
49777;DHT22;35673;51.482;7.436;2022-09-09T04:15:55;16.70;99.90
49777;DHT22;35673;51.482;7.436;2022-09-09T04:18:21;16.70;99.90
49777;DHT22;35673;51.482;7.436;2022-09-09T04:20:48;16.70;99.90
49777;DHT22;35673;51.482;7.436;2022-09-09T04:23:15;16.70;99.90
49777;DHT22;35673;51.482;7.436;2022-09-09T04:25:48;16.70;99.90
49777;DHT22;35673;51.482;7.436;2022-09-09T04:28:15;16.70;99.90
49777;DHT22;35673;51.482;7.436;2022-09-09T04:30:41;16.70;99.90
49777;DHT22;35673;51.482;7.436;2022-09-09T04:33:08;16.80;99.90
49777;DHT22;35673;51.482;7.436;2022-09-09T04:35:35;16.80;99.90
49777;DHT22;35673;51.482;7.436;2022-09-09T04:38:01;16.80;99.90
49777;DHT22;35673;51.482;7.436;2022-09-09T04:40:28;16.80;99.90
49777;DHT22;35673;51.482;7.436;2022-09-09T04:42:55;16.80;99.90
49777;DHT22;35673;51.482;7.436;2022-09-09T04:45:21;16.80;99.90
49777;DHT22;35673;51.482;7.436;2022-09-09T04:47:46;16.80;99.90
49777;DHT22;35673;51.482;7.436;2022-09-09T04:50:12;16.80;99.90
49777;DHT22;35673;51.482;7.436;2022-09-09T04:52:37;16.80;99.90
49777;DHT22;35673;51.482;7.436;2022-09-09T04:55:03;16.90;99.90
49777;DHT22;35673;51.482;7.436;2022-09-09T04:57:29;16.90;99.90
49777;DHT22;35673;51.482;7.436;2022-09-09T04:59:58;16.80;99.90
49777;DHT22;35673;51.482;7.436;2022-09-09T05:02:25;16.80;99.90
49777;DHT22;35673;51.482;7.436;2022-09-09T05:04:51;16.80;99.90
49777;DHT22;35673;51.482;7.436;2022-09-09T05:07:17;16.90;99.90
49777;DHT22;35673;51.482;7.436;2022-09-09T05:09:42;16.90;99.90
49777;DHT22;35673;51.482;7.436;2022-09-09T05:12:08;16.90;99.90
49777;DHT22;35673;51.482;7.436;2022-09-09T05:14:33;16.90;99.90
49777;DHT22;35673;51.482;7.436;2022-09-09T05:17:03;16.90;99.90
49777;DHT22;35673;51.482;7.436;2022-09-09T05:19:28;17.00;99.90
49777;DHT22;35673;51.482;7.436;2022-09-09T05:21:55;17.00;99.90
49777;DHT22;35673;51.482;7.436;2022-09-09T05:24:22;17.00;99.90
49777;DHT22;35673;51.482;7.436;2022-09-09T05:26:48;17.10;99.90
49777;DHT22;35673;51.482;7.436;2022-09-09T05:29:14;17.10;99.90
49777;DHT22;35673;51.482;7.436;2022-09-09T05:31:40;17.10;99.90
49777;DHT22;35673;51.482;7.436;2022-09-09T05:34:06;17.20;99.90
49777;DHT22;35673;51.482;7.436;2022-09-09T05:36:31;17.20;99.90
49777;DHT22;35673;51.482;7.436;2022-09-09T05:38:57;17.20;99.90
49777;DHT22;35673;51.482;7.436;2022-09-09T05:41:23;17.20;99.90
49777;DHT22;35673;51.482;7.436;2022-09-09T05:43:49;17.20;99.90
49777;DHT22;35673;51.482;7.436;2022-09-09T05:46:19;17.30;99.90
49777;DHT22;35673;51.482;7.436;2022-09-09T05:48:47;17.30;99.90
49777;DHT22;35673;51.482;7.436;2022-09-09T05:51:15;17.30;99.90
49777;DHT22;35673;51.482;7.436;2022-09-09T05:53:44;17.30;99.90
49777;DHT22;35673;51.482;7.436;2022-09-09T05:56:12;17.30;99.90
49777;DHT22;35673;51.482;7.436;2022-09-09T05:58:39;17.30;99.90
49777;DHT22;35673;51.482;7.436;2022-09-09T06:01:11;17.40;99.90
49777;DHT22;35673;51.482;7.436;2022-09-09T06:03:38;17.40;99.90
49777;DHT22;35673;51.482;7.436;2022-09-09T06:06:07;17.40;99.90
49777;DHT22;35673;51.482;7.436;2022-09-09T06:08:33;17.40;99.90
49777;DHT22;35673;51.482;7.436;2022-09-09T06:11:09;17.50;99.90
49777;DHT22;35673;51.482;7.436;2022-09-09T06:13:36;17.50;99.90
49777;DHT22;35673;51.482;7.436;2022-09-09T06:16:13;17.60;99.90
49777;DHT22;35673;51.482;7.436;2022-09-09T06:18:40;17.60;99.90
49777;DHT22;35673;51.482;7.436;2022-09-09T06:21:11;17.60;99.90
49777;DHT22;35673;51.482;7.436;2022-09-09T06:23:40;17.70;99.90
49777;DHT22;35673;51.482;7.436;2022-09-09T06:26:15;17.70;99.90
49777;DHT22;35673;51.482;7.436;2022-09-09T06:28:42;17.70;99.90
49777;DHT22;35673;51.482;7.436;2022-09-09T06:31:10;17.70;99.90
49777;DHT22;35673;51.482;7.436;2022-09-09T06:33:41;17.70;99.90
49777;DHT22;35673;51.482;7.436;2022-09-09T06:36:12;17.80;99.90
49777;DHT22;35673;51.482;7.436;2022-09-09T06:38:39;17.80;99.90
49777;DHT22;35673;51.482;7.436;2022-09-09T06:41:05;17.80;99.90
49777;DHT22;35673;51.482;7.436;2022-09-09T06:43:31;17.80;99.90
49777;DHT22;35673;51.482;7.436;2022-09-09T06:46:04;17.80;99.90
49777;DHT22;35673;51.482;7.436;2022-09-09T06:48:31;17.80;99.90
49777;DHT22;35673;51.482;7.436;2022-09-09T06:53:33;17.90;99.90
49777;DHT22;35673;51.482;7.436;2022-09-09T06:56:24;17.90;99.90
49777;DHT22;35673;51.482;7.436;2022-09-09T06:58:52;18.00;99.90
49777;DHT22;35673;51.482;7.436;2022-09-09T07:01:23;18.00;99.90
49777;DHT22;35673;51.482;7.436;2022-09-09T07:03:51;18.00;99.90
49777;DHT22;35673;51.482;7.436;2022-09-09T07:06:20;18.00;99.90
49777;DHT22;35673;51.482;7.436;2022-09-09T07:08:50;18.00;99.90
49777;DHT22;35673;51.482;7.436;2022-09-09T07:11:16;18.00;99.90
49777;DHT22;35673;51.482;7.436;2022-09-09T07:13:42;17.90;99.90
49777;DHT22;35673;51.482;7.436;2022-09-09T07:16:09;18.00;99.90
49777;DHT22;35673;51.482;7.436;2022-09-09T07:18:35;18.00;99.90
49777;DHT22;35673;51.482;7.436;2022-09-09T07:21:02;18.00;99.90
49777;DHT22;35673;51.482;7.436;2022-09-09T07:23:29;18.00;99.90
49777;DHT22;35673;51.482;7.436;2022-09-09T07:25:59;18.00;99.90
49777;DHT22;35673;51.482;7.436;2022-09-09T07:28:25;18.00;99.90
49777;DHT22;35673;51.482;7.436;2022-09-09T07:30:56;18.00;99.90
49777;DHT22;35673;51.482;7.436;2022-09-09T07:33:23;18.00;99.90
49777;DHT22;35673;51.482;7.436;2022-09-09T07:35:49;18.00;99.90
49777;DHT22;35673;51.482;7.436;2022-09-09T07:38:15;18.20;99.90
49777;DHT22;35673;51.482;7.436;2022-09-09T07:40:41;18.40;99.90
49777;DHT22;35673;51.482;7.436;2022-09-09T07:43:07;18.80;99.90
49777;DHT22;35673;51.482;7.436;2022-09-09T07:45:33;19.00;99.90
49777;DHT22;35673;51.482;7.436;2022-09-09T07:47:59;19.30;99.90
49777;DHT22;35673;51.482;7.436;2022-09-09T07:50:25;19.30;99.90
49777;DHT22;35673;51.482;7.436;2022-09-09T07:52:51;19.20;99.90
49777;DHT22;35673;51.482;7.436;2022-09-09T07:55:19;19.30;99.90
49777;DHT22;35673;51.482;7.436;2022-09-09T07:57:45;19.40;99.90
49777;DHT22;35673;51.482;7.436;2022-09-09T08:00:11;19.50;99.90
49777;DHT22;35673;51.482;7.436;2022-09-09T08:02:37;19.60;99.90
49777;DHT22;35673;51.482;7.436;2022-09-09T08:05:03;19.40;99.90
49777;DHT22;35673;51.482;7.436;2022-09-09T08:07:28;19.40;99.90
49777;DHT22;35673;51.482;7.436;2022-09-09T08:09:54;19.50;99.90
49777;DHT22;35673;51.482;7.436;2022-09-09T08:12:21;19.70;99.90
49777;DHT22;35673;51.482;7.436;2022-09-09T08:14:46;19.60;99.90
49777;DHT22;35673;51.482;7.436;2022-09-09T08:17:13;19.50;99.40
49777;DHT22;35673;51.482;7.436;2022-09-09T08:19:38;19.30;99.90
49777;DHT22;35673;51.482;7.436;2022-09-09T08:22:04;19.20;99.90
49777;DHT22;35673;51.482;7.436;2022-09-09T08:24:29;19.20;99.90
49777;DHT22;35673;51.482;7.436;2022-09-09T08:26:55;19.20;99.90
49777;DHT22;35673;51.482;7.436;2022-09-09T08:29:22;19.10;99.50
49777;DHT22;35673;51.482;7.436;2022-09-09T08:31:56;19.10;99.20
49777;DHT22;35673;51.482;7.436;2022-09-09T08:34:26;19.30;99.70
49777;DHT22;35673;51.482;7.436;2022-09-09T08:36:53;19.40;97.80
49777;DHT22;35673;51.482;7.436;2022-09-09T08:39:20;19.60;97.50
49777;DHT22;35673;51.482;7.436;2022-09-09T08:42:38;20.20;95.10
49777;DHT22;35673;51.482;7.436;2022-09-09T08:45:01;20.50;91.40
49777;DHT22;35673;51.482;7.436;2022-09-09T08:50:36;20.80;88.20
49777;DHT22;35673;51.482;7.436;2022-09-09T08:53:19;20.70;88.20
49777;DHT22;35673;51.482;7.436;2022-09-09T08:55:54;20.40;86.10
49777;DHT22;35673;51.482;7.436;2022-09-09T09:00:57;20.30;89.80
49777;DHT22;35673;51.482;7.436;2022-09-09T09:06:19;21.20;83.50
49777;DHT22;35673;51.482;7.436;2022-09-09T09:09:02;21.70;81.20
49777;DHT22;35673;51.482;7.436;2022-09-09T09:12:06;22.10;78.20
49777;DHT22;35673;51.482;7.436;2022-09-09T09:14:30;21.80;77.10
49777;DHT22;35673;51.482;7.436;2022-09-09T09:17:14;21.80;78.00
49777;DHT22;35673;51.482;7.436;2022-09-09T09:19:42;21.90;76.50
49777;DHT22;35673;51.482;7.436;2022-09-09T09:22:24;22.20;76.00
49777;DHT22;35673;51.482;7.436;2022-09-09T09:24:55;22.10;73.10
49777;DHT22;35673;51.482;7.436;2022-09-09T09:27:25;21.80;74.80
49777;DHT22;35673;51.482;7.436;2022-09-09T09:29:55;22.10;74.10
49777;DHT22;35673;51.482;7.436;2022-09-09T09:32:23;22.40;73.30
49777;DHT22;35673;51.482;7.436;2022-09-09T09:34:53;22.50;72.30
49777;DHT22;35673;51.482;7.436;2022-09-09T09:37:30;22.50;72.10
49777;DHT22;35673;51.482;7.436;2022-09-09T09:40:07;22.30;72.10
49777;DHT22;35673;51.482;7.436;2022-09-09T09:42:32;21.90;72.30
49777;DHT22;35673;51.482;7.436;2022-09-09T09:45:19;21.50;73.50
49777;DHT22;35673;51.482;7.436;2022-09-09T09:47:46;21.30;73.30
49777;DHT22;35673;51.482;7.436;2022-09-09T09:50:19;21.20;73.80
49777;DHT22;35673;51.482;7.436;2022-09-09T09:52:55;21.10;73.00
49777;DHT22;35673;51.482;7.436;2022-09-09T09:55:21;21.00;73.40
49777;DHT22;35673;51.482;7.436;2022-09-09T09:57:48;21.00;74.00
49777;DHT22;35673;51.482;7.436;2022-09-09T10:00:19;21.10;74.00
49777;DHT22;35673;51.482;7.436;2022-09-09T10:02:46;21.10;74.00
49777;DHT22;35673;51.482;7.436;2022-09-09T10:05:15;21.30;73.90
49777;DHT22;35673;51.482;7.436;2022-09-09T10:07:41;21.30;73.10
49777;DHT22;35673;51.482;7.436;2022-09-09T10:10:24;21.20;73.60
49777;DHT22;35673;51.482;7.436;2022-09-09T10:18:39;21.30;73.70
49777;DHT22;35673;51.482;7.436;2022-09-09T10:21:40;21.10;73.30
49777;DHT22;35673;51.482;7.436;2022-09-09T10:35:14;21.70;71.70
49777;DHT22;35673;51.482;7.436;2022-09-09T10:43:40;21.30;69.80
49777;DHT22;35673;51.482;7.436;2022-09-09T10:59:59;21.60;68.30
49777;DHT22;35673;51.482;7.436;2022-09-09T11:02:30;21.50;68.00
49777;DHT22;35673;51.482;7.436;2022-09-09T11:05:16;21.50;68.30
49777;DHT22;35673;51.482;7.436;2022-09-09T11:07:56;21.50;68.80
49777;DHT22;35673;51.482;7.436;2022-09-09T11:10:26;21.60;68.30
49777;DHT22;35673;51.482;7.436;2022-09-09T11:13:01;21.60;69.10
49777;DHT22;35673;51.482;7.436;2022-09-09T11:15:43;21.80;68.70
49777;DHT22;35673;51.482;7.436;2022-09-09T11:18:19;21.90;67.60
49777;DHT22;35673;51.482;7.436;2022-09-09T11:20:49;22.10;67.20
49777;DHT22;35673;51.482;7.436;2022-09-09T11:23:32;22.20;67.00
49777;DHT22;35673;51.482;7.436;2022-09-09T11:26:01;22.30;66.70
49777;DHT22;35673;51.482;7.436;2022-09-09T11:28:58;22.50;66.50
49777;DHT22;35673;51.482;7.436;2022-09-09T11:40:21;22.70;66.00
49777;DHT22;35673;51.482;7.436;2022-09-09T11:42:47;22.80;65.60
49777;DHT22;35673;51.482;7.436;2022-09-09T11:45:25;23.10;65.00
49777;DHT22;35673;51.482;7.436;2022-09-09T11:48:00;23.10;64.30
49777;DHT22;35673;51.482;7.436;2022-09-09T11:53:16;22.90;64.80
49777;DHT22;35673;51.482;7.436;2022-09-09T11:55:42;22.90;64.00
49777;DHT22;35673;51.482;7.436;2022-09-09T12:00:46;23.30;64.00
49777;DHT22;35673;51.482;7.436;2022-09-09T12:03:45;23.30;63.80
49777;DHT22;35673;51.482;7.436;2022-09-09T12:08:45;22.80;64.30
49777;DHT22;35673;51.482;7.436;2022-09-09T12:11:11;22.70;64.20
49777;DHT22;35673;51.482;7.436;2022-09-09T12:13:37;22.60;64.30
49777;DHT22;35673;51.482;7.436;2022-09-09T12:16:03;22.50;64.70
49777;DHT22;35673;51.482;7.436;2022-09-09T12:18:34;22.40;64.90
49777;DHT22;35673;51.482;7.436;2022-09-09T12:21:07;22.30;65.30
49777;DHT22;35673;51.482;7.436;2022-09-09T12:26:37;22.00;66.00
49777;DHT22;35673;51.482;7.436;2022-09-09T12:32:05;21.70;68.70
49777;DHT22;35673;51.482;7.436;2022-09-09T12:34:47;20.90;75.80
49777;DHT22;35673;51.482;7.436;2022-09-09T12:37:20;20.20;80.30
49777;DHT22;35673;51.482;7.436;2022-09-09T12:39:56;19.80;84.60
49777;DHT22;35673;51.482;7.436;2022-09-09T12:42:22;19.50;92.00
49777;DHT22;35673;51.482;7.436;2022-09-09T12:45:19;19.30;95.90
49777;DHT22;35673;51.482;7.436;2022-09-09T12:47:48;19.20;99.30
49777;DHT22;35673;51.482;7.436;2022-09-09T12:50:26;19.40;99.90
49777;DHT22;35673;51.482;7.436;2022-09-09T12:53:03;19.70;99.50
49777;DHT22;35673;51.482;7.436;2022-09-09T12:55:37;19.90;99.90
49777;DHT22;35673;51.482;7.436;2022-09-09T12:58:05;20.10;99.90
49777;DHT22;35673;51.482;7.436;2022-09-09T13:00:32;20.20;99.90
49777;DHT22;35673;51.482;7.436;2022-09-09T13:03:14;20.20;99.90
49777;DHT22;35673;51.482;7.436;2022-09-09T13:05:41;20.30;99.90
49777;DHT22;35673;51.482;7.436;2022-09-09T13:08:12;20.30;99.90
49777;DHT22;35673;51.482;7.436;2022-09-09T13:10:52;20.20;99.90
49777;DHT22;35673;51.482;7.436;2022-09-09T13:13:26;20.20;99.90
49777;DHT22;35673;51.482;7.436;2022-09-09T13:16:02;20.20;99.90
49777;DHT22;35673;51.482;7.436;2022-09-09T13:18:32;20.30;99.90
49777;DHT22;35673;51.482;7.436;2022-09-09T13:20:59;20.40;99.90
49777;DHT22;35673;51.482;7.436;2022-09-09T13:23:36;20.60;99.90
49777;DHT22;35673;51.482;7.436;2022-09-09T13:26:18;20.70;99.90
49777;DHT22;35673;51.482;7.436;2022-09-09T13:28:47;21.50;96.40
49777;DHT22;35673;51.482;7.436;2022-09-09T13:31:21;23.30;90.80
49777;DHT22;35673;51.482;7.436;2022-09-09T13:33:47;23.70;81.30
49777;DHT22;35673;51.482;7.436;2022-09-09T13:36:13;24.90;79.70
49777;DHT22;35673;51.482;7.436;2022-09-09T13:41:22;25.90;76.00
49777;DHT22;35673;51.482;7.436;2022-09-09T13:43:49;28.10;68.00
49777;DHT22;35673;51.482;7.436;2022-09-09T13:51:43;24.40;68.10
49777;DHT22;35673;51.482;7.436;2022-09-09T13:54:13;23.80;69.50
49777;DHT22;35673;51.482;7.436;2022-09-09T13:56:40;23.10;70.10
49777;DHT22;35673;51.482;7.436;2022-09-09T13:59:12;22.80;71.80
49777;DHT22;35673;51.482;7.436;2022-09-09T14:01:37;22.60;71.90
49777;DHT22;35673;51.482;7.436;2022-09-09T14:04:03;22.20;72.50
49777;DHT22;35673;51.482;7.436;2022-09-09T14:06:30;21.80;74.30
49777;DHT22;35673;51.482;7.436;2022-09-09T14:08:58;20.40;90.40
49777;DHT22;35673;51.482;7.436;2022-09-09T14:11:24;19.30;99.90
49777;DHT22;35673;51.482;7.436;2022-09-09T14:13:49;18.70;99.90
49777;DHT22;35673;51.482;7.436;2022-09-09T14:16:18;18.60;99.90
49777;DHT22;35673;51.482;7.436;2022-09-09T14:18:45;18.50;99.90
49777;DHT22;35673;51.482;7.436;2022-09-09T14:21:11;18.40;99.90
49777;DHT22;35673;51.482;7.436;2022-09-09T14:23:37;18.50;99.90
49777;DHT22;35673;51.482;7.436;2022-09-09T14:26:06;18.70;99.90
49777;DHT22;35673;51.482;7.436;2022-09-09T14:28:32;19.40;99.90
49777;DHT22;35673;51.482;7.436;2022-09-09T14:31:02;23.00;99.40
49777;DHT22;35673;51.482;7.436;2022-09-09T14:33:29;24.30;95.20
49777;DHT22;35673;51.482;7.436;2022-09-09T14:35:59;27.30;85.90
49777;DHT22;35673;51.482;7.436;2022-09-09T14:38:28;28.10;73.90
49777;DHT22;35673;51.482;7.436;2022-09-09T14:40:54;29.70;71.00
49777;DHT22;35673;51.482;7.436;2022-09-09T14:43:19;29.60;67.10
49777;DHT22;35673;51.482;7.436;2022-09-09T14:45:45;30.00;63.70
49777;DHT22;35673;51.482;7.436;2022-09-09T14:48:13;28.60;65.10
49777;DHT22;35673;51.482;7.436;2022-09-09T14:50:40;27.10;66.80
49777;DHT22;35673;51.482;7.436;2022-09-09T14:53:06;25.50;68.60
49777;DHT22;35673;51.482;7.436;2022-09-09T14:55:32;24.30;72.50
49777;DHT22;35673;51.482;7.436;2022-09-09T14:57:58;23.40;75.40
49777;DHT22;35673;51.482;7.436;2022-09-09T15:00:24;23.00;77.20
49777;DHT22;35673;51.482;7.436;2022-09-09T15:02:53;22.70;78.70
49777;DHT22;35673;51.482;7.436;2022-09-09T15:05:18;22.30;80.00
49777;DHT22;35673;51.482;7.436;2022-09-09T15:07:44;21.90;83.10
49777;DHT22;35673;51.482;7.436;2022-09-09T15:10:10;21.50;88.10
49777;DHT22;35673;51.482;7.436;2022-09-09T15:12:36;22.60;89.80
49777;DHT22;35673;51.482;7.436;2022-09-09T15:15:04;25.30;77.40
49777;DHT22;35673;51.482;7.436;2022-09-09T15:17:30;25.40;73.80
49777;DHT22;35673;51.482;7.436;2022-09-09T15:19:55;24.70;75.50
49777;DHT22;35673;51.482;7.436;2022-09-09T15:22:21;24.70;76.40
49777;DHT22;35673;51.482;7.436;2022-09-09T15:24:47;24.30;77.10
49777;DHT22;35673;51.482;7.436;2022-09-09T15:27:12;23.70;79.90
49777;DHT22;35673;51.482;7.436;2022-09-09T15:29:40;23.10;84.80
49777;DHT22;35673;51.482;7.436;2022-09-09T15:32:06;22.60;82.90
49777;DHT22;35673;51.482;7.436;2022-09-09T15:34:31;22.30;81.30
49777;DHT22;35673;51.482;7.436;2022-09-09T15:36:57;22.10;81.30
49777;DHT22;35673;51.482;7.436;2022-09-09T15:39:25;21.70;81.50
49777;DHT22;35673;51.482;7.436;2022-09-09T15:41:50;21.30;84.70
49777;DHT22;35673;51.482;7.436;2022-09-09T15:44:17;21.00;87.90
49777;DHT22;35673;51.482;7.436;2022-09-09T15:46:49;19.70;99.90
49777;DHT22;35673;51.482;7.436;2022-09-09T15:49:19;18.20;99.90
49777;DHT22;35673;51.482;7.436;2022-09-09T15:51:56;17.40;99.90
49777;DHT22;35673;51.482;7.436;2022-09-09T15:54:25;16.90;99.90
49777;DHT22;35673;51.482;7.436;2022-09-09T15:56:53;16.30;99.90
49777;DHT22;35673;51.482;7.436;2022-09-09T15:59:21;16.40;99.90
49777;DHT22;35673;51.482;7.436;2022-09-09T16:01:47;16.70;99.90
49777;DHT22;35673;51.482;7.436;2022-09-09T16:04:17;17.00;99.90
49777;DHT22;35673;51.482;7.436;2022-09-09T16:06:58;17.10;99.90
49777;DHT22;35673;51.482;7.436;2022-09-09T16:09:25;17.10;99.90
49777;DHT22;35673;51.482;7.436;2022-09-09T16:11:51;17.20;99.90
49777;DHT22;35673;51.482;7.436;2022-09-09T16:14:18;17.30;99.90
49777;DHT22;35673;51.482;7.436;2022-09-09T16:16:44;17.20;99.90
49777;DHT22;35673;51.482;7.436;2022-09-09T16:19:12;17.30;99.90
49777;DHT22;35673;51.482;7.436;2022-09-09T16:21:42;17.30;99.90
49777;DHT22;35673;51.482;7.436;2022-09-09T16:24:10;17.20;99.90
49777;DHT22;35673;51.482;7.436;2022-09-09T16:26:38;17.00;99.90
49777;DHT22;35673;51.482;7.436;2022-09-09T16:29:04;17.00;99.90
49777;DHT22;35673;51.482;7.436;2022-09-09T16:31:31;16.90;99.90
49777;DHT22;35673;51.482;7.436;2022-09-09T16:33:59;16.90;99.90
49777;DHT22;35673;51.482;7.436;2022-09-09T16:36:29;16.90;99.90
49777;DHT22;35673;51.482;7.436;2022-09-09T16:38:57;16.80;99.90
49777;DHT22;35673;51.482;7.436;2022-09-09T16:41:24;16.80;99.90
49777;DHT22;35673;51.482;7.436;2022-09-09T16:43:57;16.70;99.90
49777;DHT22;35673;51.482;7.436;2022-09-09T16:46:26;16.70;99.90
49777;DHT22;35673;51.482;7.436;2022-09-09T16:48:53;16.80;99.90
49777;DHT22;35673;51.482;7.436;2022-09-09T16:51:20;16.80;99.90
49777;DHT22;35673;51.482;7.436;2022-09-09T16:53:48;16.80;99.90
49777;DHT22;35673;51.482;7.436;2022-09-09T16:56:17;16.70;99.90
49777;DHT22;35673;51.482;7.436;2022-09-09T16:58:48;16.80;99.90
49777;DHT22;35673;51.482;7.436;2022-09-09T17:01:14;16.80;99.90
49777;DHT22;35673;51.482;7.436;2022-09-09T17:03:40;16.80;99.90
49777;DHT22;35673;51.482;7.436;2022-09-09T17:06:14;16.80;99.90
49777;DHT22;35673;51.482;7.436;2022-09-09T17:08:41;16.90;99.90
49777;DHT22;35673;51.482;7.436;2022-09-09T17:11:16;16.90;99.90
49777;DHT22;35673;51.482;7.436;2022-09-09T17:13:44;16.90;99.90
49777;DHT22;35673;51.482;7.436;2022-09-09T17:16:11;16.90;99.90
49777;DHT22;35673;51.482;7.436;2022-09-09T17:18:37;16.90;99.90
49777;DHT22;35673;51.482;7.436;2022-09-09T17:21:05;17.00;99.90
49777;DHT22;35673;51.482;7.436;2022-09-09T17:23:32;17.00;99.90
49777;DHT22;35673;51.482;7.436;2022-09-09T17:25:58;17.00;99.90
49777;DHT22;35673;51.482;7.436;2022-09-09T17:28:25;16.90;99.90
49777;DHT22;35673;51.482;7.436;2022-09-09T17:30:57;16.90;99.90
49777;DHT22;35673;51.482;7.436;2022-09-09T17:33:22;16.80;99.90
49777;DHT22;35673;51.482;7.436;2022-09-09T17:35:48;16.80;99.90
49777;DHT22;35673;51.482;7.436;2022-09-09T17:38:14;16.80;99.90
49777;DHT22;35673;51.482;7.436;2022-09-09T17:40:40;16.80;99.90
49777;DHT22;35673;51.482;7.436;2022-09-09T17:43:05;16.80;99.90
49777;DHT22;35673;51.482;7.436;2022-09-09T17:45:31;16.80;99.90